createdAt,value
2023-04-27T00:00:56.590Z,4.83
2023-04-27T00:03:23.857Z,4.70
2023-04-27T00:05:51.733Z,4.63
2023-04-27T00:08:19.015Z,4.55
2023-04-27T00:10:46.376Z,4.56
2023-04-27T00:13:13.458Z,4.54
2023-04-27T00:15:40.998Z,4.48
2023-04-27T00:18:08.136Z,4.54
2023-04-27T00:20:35.689Z,4.67
2023-04-27T00:23:02.820Z,4.66
2023-04-27T00:25:29.898Z,4.64
2023-04-27T00:27:56.995Z,4.67
2023-04-27T00:30:25.123Z,4.63
2023-04-27T00:32:53.769Z,4.62
2023-04-27T00:35:21.255Z,4.58
2023-04-27T00:37:48.307Z,4.62
2023-04-27T00:40:15.380Z,4.66
2023-04-27T00:42:42.441Z,4.67
2023-04-27T00:45:10.491Z,4.68
2023-04-27T00:47:37.619Z,4.56
2023-04-27T00:50:08.529Z,4.59
2023-04-27T00:52:39.014Z,4.60
2023-04-27T00:55:06.362Z,4.62
2023-04-27T00:57:33.780Z,4.57
2023-04-27T01:00:01.518Z,4.57
2023-04-27T01:02:30.061Z,4.61
2023-04-27T01:04:57.545Z,4.50
2023-04-27T01:07:25.071Z,4.52
2023-04-27T01:09:52.206Z,4.57
2023-04-27T01:12:19.292Z,4.62
2023-04-27T01:14:46.427Z,4.57
2023-04-27T01:17:14.175Z,4.57
2023-04-27T01:19:41.299Z,4.37
2023-04-27T01:22:08.388Z,4.43
2023-04-27T01:24:35.544Z,4.36
2023-04-27T01:27:05.542Z,4.26
2023-04-27T01:29:32.725Z,4.25
2023-04-27T01:31:59.851Z,4.23
2023-04-27T01:34:26.953Z,4.40
2023-04-27T01:36:53.982Z,4.45
2023-04-27T01:39:21.975Z,4.44
2023-04-27T01:41:48.976Z,4.39
2023-04-27T01:44:16.158Z,4.37
2023-04-27T01:46:43.261Z,4.42
2023-04-27T01:49:10.483Z,4.23
2023-04-27T01:51:37.528Z,4.25
2023-04-27T01:54:04.615Z,4.32
2023-04-27T01:56:31.941Z,4.36
2023-04-27T01:58:59.103Z,4.40
2023-04-27T02:01:26.489Z,4.41
2023-04-27T02:03:53.710Z,4.35
2023-04-27T02:06:21.113Z,4.28
2023-04-27T02:08:48.604Z,4.23
2023-04-27T02:11:15.742Z,4.12
2023-04-27T02:13:43.303Z,3.97
2023-04-27T02:16:10.541Z,4.06
2023-04-27T02:18:38.531Z,4.06
2023-04-27T02:21:10.049Z,4.01
2023-04-27T02:23:37.287Z,3.90
2023-04-27T02:26:04.512Z,3.66
2023-04-27T02:28:32.317Z,3.57
2023-04-27T02:31:01.453Z,3.84
2023-04-27T02:33:28.565Z,3.90
2023-04-27T02:35:57.672Z,3.80
2023-04-27T02:38:24.716Z,3.55
2023-04-27T02:40:55.110Z,3.41
2023-04-27T02:43:22.567Z,3.52
2023-04-27T02:45:49.687Z,3.64
2023-04-27T02:48:16.737Z,3.67
2023-04-27T02:50:44.493Z,3.45
2023-04-27T02:53:12.237Z,3.33
2023-04-27T02:55:46.406Z,3.52
2023-04-27T02:58:13.574Z,3.59
2023-04-27T03:00:41.577Z,3.48
2023-04-27T03:03:09.922Z,3.49
2023-04-27T03:05:38.154Z,3.49
2023-04-27T03:08:05.342Z,3.28
2023-04-27T03:10:32.633Z,3.18
2023-04-27T03:13:01.512Z,3.31
2023-04-27T03:15:28.726Z,3.37
2023-04-27T03:17:55.986Z,3.11
2023-04-27T03:20:23.132Z,2.85
2023-04-27T03:22:50.541Z,2.76
2023-04-27T03:25:19.704Z,2.74
2023-04-27T03:27:46.903Z,3.05
2023-04-27T03:30:14.209Z,2.95
2023-04-27T03:32:41.405Z,3.09
2023-04-27T03:35:09.777Z,3.16
2023-04-27T03:37:36.906Z,3.01
2023-04-27T03:40:07.514Z,3.12
2023-04-27T03:42:34.742Z,2.90
2023-04-27T03:45:02.113Z,2.96
2023-04-27T03:47:29.347Z,3.03
2023-04-27T03:49:57.573Z,3.13
2023-04-27T03:52:24.768Z,2.83
2023-04-27T03:54:51.992Z,2.58
2023-04-27T03:57:19.180Z,2.53
2023-04-27T03:59:46.304Z,2.44
2023-04-27T04:02:13.552Z,2.74
2023-04-27T04:04:42.372Z,2.71
2023-04-27T04:07:09.677Z,2.81
2023-04-27T04:09:36.869Z,2.48
2023-04-27T04:12:04.178Z,2.32
2023-04-27T04:14:31.243Z,2.31
2023-04-27T04:16:58.471Z,2.28
2023-04-27T04:19:25.882Z,2.42
2023-04-27T04:21:54.643Z,2.41
2023-04-27T04:24:21.853Z,2.38
2023-04-27T04:26:48.900Z,2.52
2023-04-27T04:29:16.775Z,2.76
2023-04-27T04:31:44.452Z,2.81
2023-04-27T04:34:11.619Z,2.96
2023-04-27T04:36:38.708Z,3.00
2023-04-27T04:39:06.779Z,3.04
2023-04-27T04:41:33.858Z,2.90
2023-04-27T04:44:00.943Z,2.98
2023-04-27T04:46:28.588Z,3.07
2023-04-27T04:48:56.978Z,2.99
2023-04-27T04:51:24.074Z,2.95
2023-04-27T04:53:51.179Z,3.08
2023-04-27T04:56:18.373Z,3.29
2023-04-27T04:58:45.633Z,3.40
2023-04-27T05:01:12.752Z,3.50
2023-04-27T05:03:40.014Z,3.56
2023-04-27T05:06:07.266Z,3.57
2023-04-27T05:08:34.375Z,3.47
2023-04-27T05:11:01.456Z,3.41
2023-04-27T05:13:29.045Z,3.53
2023-04-27T05:15:56.138Z,3.62
2023-04-27T05:18:23.256Z,3.63
2023-04-27T05:20:50.383Z,3.66
2023-04-27T05:23:17.485Z,3.66
2023-04-27T05:25:44.605Z,3.75
2023-04-27T05:28:11.753Z,3.90
2023-04-27T05:30:38.819Z,3.86
2023-04-27T05:33:06.200Z,3.91
2023-04-27T05:35:33.658Z,3.93
2023-04-27T05:38:00.869Z,3.96
2023-04-27T05:40:28.341Z,4.01
2023-04-27T05:42:55.544Z,3.89
2023-04-27T05:45:22.779Z,4.01
2023-04-27T05:47:50.003Z,4.12
2023-04-27T05:50:17.130Z,4.19
2023-04-27T05:52:44.213Z,4.28
2023-04-27T05:55:11.391Z,4.26
2023-04-27T05:57:38.938Z,4.29
2023-04-27T06:00:10.895Z,4.30
2023-04-27T06:02:40.760Z,4.44
2023-04-27T06:05:08.765Z,4.53
2023-04-27T06:07:37.495Z,4.65
2023-04-27T06:10:04.993Z,4.76
2023-04-27T06:12:32.542Z,4.92
2023-04-27T06:14:59.621Z,4.99
2023-04-27T06:17:26.756Z,4.96
2023-04-27T06:19:53.828Z,4.95
2023-04-27T06:22:20.913Z,5.09
2023-04-27T06:24:47.983Z,5.26
2023-04-27T06:27:15.039Z,5.28
2023-04-27T06:29:42.098Z,5.31
2023-04-27T06:32:09.300Z,5.43
2023-04-27T06:34:36.731Z,5.63
2023-04-27T06:37:03.776Z,5.65
2023-04-27T06:39:32.077Z,5.56
2023-04-27T06:41:59.221Z,5.57
2023-04-27T06:44:26.328Z,5.66
2023-04-27T06:46:53.488Z,5.64
2023-04-27T06:49:20.555Z,5.61
2023-04-27T06:51:48.517Z,5.69
2023-04-27T06:54:15.687Z,5.78
2023-04-27T06:56:42.833Z,5.96
2023-04-27T06:59:09.956Z,5.95
2023-04-27T07:01:37.449Z,5.90
2023-04-27T07:04:05.221Z,5.93
2023-04-27T07:06:32.716Z,6.09
2023-04-27T07:08:59.941Z,6.29
2023-04-27T07:11:27.110Z,6.30
2023-04-27T07:13:54.184Z,6.46
2023-04-27T07:16:21.389Z,6.42
2023-04-27T07:18:48.605Z,6.62
2023-04-27T07:21:15.999Z,6.66
2023-04-27T07:23:43.042Z,6.77
2023-04-27T07:26:10.125Z,6.86
2023-04-27T07:28:38.241Z,7.07
2023-04-27T07:31:06.033Z,7.26
2023-04-27T07:33:33.870Z,7.27
2023-04-27T07:36:02.316Z,7.11
2023-04-27T07:38:31.245Z,7.27
2023-04-27T07:40:58.781Z,7.34
2023-04-27T07:43:26.743Z,7.49
2023-04-27T07:45:54.639Z,7.48
2023-04-27T07:48:22.849Z,7.53
2023-04-27T07:50:50.816Z,7.71
2023-04-27T07:53:18.094Z,7.61
2023-04-27T07:55:45.183Z,7.86
2023-04-27T07:58:12.699Z,7.95
2023-04-27T08:00:39.736Z,8.06
2023-04-27T08:03:07.988Z,8.26
2023-04-27T08:05:35.892Z,8.14
2023-04-27T08:08:03.199Z,8.41
2023-04-27T08:10:30.422Z,8.37
2023-04-27T08:12:57.536Z,8.46
2023-04-27T08:15:24.595Z,8.64
2023-04-27T08:17:51.745Z,8.75
2023-04-27T08:20:18.917Z,8.82
2023-04-27T08:22:45.990Z,8.91
2023-04-27T08:25:13.047Z,9.03
2023-04-27T08:27:40.475Z,9.09
2023-04-27T08:30:08.592Z,9.24
2023-04-27T08:32:35.852Z,9.60
2023-04-27T08:35:03.126Z,9.95
2023-04-27T08:37:30.423Z,10.12
2023-04-27T08:39:57.561Z,10.35
2023-04-27T08:42:24.811Z,10.40
2023-04-27T08:44:51.894Z,10.14
2023-04-27T08:47:28.168Z,10.34
2023-04-27T08:50:03.740Z,10.41
2023-04-27T08:52:31.005Z,10.42
2023-04-27T08:54:58.150Z,10.46
2023-04-27T08:57:25.342Z,10.84
2023-04-27T09:00:06.746Z,11.00
2023-04-27T09:02:34.169Z,11.34
2023-04-27T09:05:02.932Z,11.29
2023-04-27T09:07:30.997Z,11.45
2023-04-27T09:10:04.713Z,11.35
2023-04-27T09:12:31.802Z,10.97
2023-04-27T09:15:03.656Z,11.35
2023-04-27T09:17:33.663Z,11.28
2023-04-27T09:20:08.781Z,11.82
2023-04-27T09:22:46.085Z,11.73
2023-04-27T09:25:26.700Z,11.94
2023-04-27T09:27:54.045Z,12.17
2023-04-27T09:30:21.637Z,12.11
2023-04-27T09:32:59.355Z,11.89
2023-04-27T09:35:27.518Z,12.16
2023-04-27T09:37:55.002Z,12.56
2023-04-27T09:40:27.798Z,12.73
2023-04-27T09:43:04.014Z,12.19
2023-04-27T09:45:33.288Z,12.05
2023-04-27T09:48:01.293Z,12.56
2023-04-27T09:50:28.579Z,12.84
2023-04-27T09:52:57.442Z,13.02
2023-04-27T09:55:27.220Z,12.24
2023-04-27T09:58:18.598Z,12.22
2023-04-27T10:00:49.100Z,12.59
2023-04-27T10:03:22.854Z,13.29
2023-04-27T10:06:08.984Z,13.05
2023-04-27T10:08:36.368Z,13.23
2023-04-27T10:11:13.303Z,13.31
2023-04-27T10:13:51.747Z,13.57
2023-04-27T10:16:22.160Z,13.32
2023-04-27T10:18:55.808Z,13.53
2023-04-27T10:21:27.611Z,13.89
2023-04-27T10:23:55.062Z,14.02
2023-04-27T10:26:25.882Z,14.08
2023-04-27T10:29:04.460Z,14.41
2023-04-27T10:31:31.763Z,13.31
2023-04-27T10:34:11.302Z,13.87
2023-04-27T10:36:39.087Z,14.07
2023-04-27T10:39:18.970Z,14.13
2023-04-27T10:41:49.760Z,13.86
2023-04-27T10:44:28.776Z,13.95
2023-04-27T10:46:57.155Z,14.63
2023-04-27T10:49:24.369Z,14.58
2023-04-27T10:51:51.734Z,14.43
2023-04-27T10:54:19.125Z,14.62
2023-04-27T10:56:46.208Z,15.25
2023-04-27T10:59:13.453Z,14.90
2023-04-27T11:01:40.960Z,14.56
2023-04-27T11:04:08.070Z,14.79
2023-04-27T11:06:42.016Z,14.85
2023-04-27T11:09:10.672Z,15.05
2023-04-27T11:11:37.863Z,15.07
2023-04-27T11:14:05.068Z,14.79
2023-04-27T11:16:33.109Z,15.02
2023-04-27T11:19:06.825Z,14.88
2023-04-27T11:21:33.978Z,14.94
2023-04-27T11:24:05.141Z,14.45
2023-04-27T11:26:32.631Z,14.04
2023-04-27T11:29:01.610Z,13.47
2023-04-27T11:31:38.681Z,14.23
2023-04-27T11:34:07.588Z,13.82
2023-04-27T11:36:36.091Z,13.02
2023-04-27T11:39:04.843Z,13.22
2023-04-27T11:41:35.857Z,13.56
2023-04-27T11:44:07.636Z,14.39
2023-04-27T11:46:38.000Z,14.73
2023-04-27T11:49:05.907Z,14.69
2023-04-27T11:51:33.547Z,13.87
2023-04-27T11:54:04.741Z,13.85
2023-04-27T11:56:38.732Z,13.85
2023-04-27T11:59:06.475Z,14.31
2023-04-27T12:01:38.178Z,14.66
2023-04-27T12:04:06.140Z,15.04
2023-04-27T12:06:33.740Z,15.10
2023-04-27T12:09:01.275Z,14.71
2023-04-27T12:11:28.491Z,15.22
2023-04-27T12:13:56.118Z,14.95
2023-04-27T12:16:23.482Z,14.13
2023-04-27T12:18:51.068Z,14.41
2023-04-27T12:21:18.437Z,14.12
2023-04-27T12:23:45.647Z,14.50
2023-04-27T12:26:14.961Z,14.07
2023-04-27T12:28:42.557Z,13.57
2023-04-27T12:31:13.291Z,14.12
2023-04-27T12:33:40.605Z,13.91
2023-04-27T12:36:07.740Z,13.80
2023-04-27T12:38:34.834Z,14.28
2023-04-27T12:41:02.248Z,14.62
2023-04-27T12:43:29.401Z,14.84
2023-04-27T12:45:56.708Z,14.83
2023-04-27T12:48:23.922Z,14.62
2023-04-27T12:50:51.065Z,14.64
2023-04-27T12:53:18.268Z,14.78
2023-04-27T12:55:46.926Z,14.58
2023-04-27T12:58:14.442Z,13.85
2023-04-27T13:00:41.993Z,14.08
2023-04-27T13:03:09.505Z,14.03
2023-04-27T13:05:36.827Z,13.77
2023-04-27T13:08:05.599Z,13.92
2023-04-27T13:10:32.800Z,13.87
2023-04-27T13:13:00.115Z,14.00
2023-04-27T13:15:28.465Z,13.85
2023-04-27T13:17:56.803Z,13.91
2023-04-27T13:20:23.970Z,13.45
2023-04-27T13:22:51.116Z,12.90
2023-04-27T13:25:19.828Z,13.59
2023-04-27T13:27:47.030Z,14.03
2023-04-27T13:30:14.173Z,13.77
2023-04-27T13:32:41.557Z,13.76
2023-04-27T13:35:08.953Z,13.35
2023-04-27T13:37:36.097Z,13.65
2023-04-27T13:40:05.304Z,14.21
2023-04-27T13:42:32.407Z,13.73
2023-04-27T13:44:59.692Z,13.88
2023-04-27T13:47:29.190Z,13.57
2023-04-27T13:49:56.440Z,13.33
2023-04-27T13:52:23.573Z,13.53
2023-04-27T13:54:50.860Z,13.43
2023-04-27T13:57:17.956Z,13.76
2023-04-27T13:59:44.994Z,13.92
2023-04-27T14:02:12.468Z,13.93
2023-04-27T14:04:39.651Z,13.78
2023-04-27T14:07:07.037Z,13.95
2023-04-27T14:09:34.138Z,13.96
2023-04-27T14:12:01.534Z,14.08
2023-04-27T14:14:29.304Z,14.21
2023-04-27T14:16:57.262Z,14.16
2023-04-27T14:19:24.336Z,13.91
2023-04-27T14:21:51.627Z,14.02
2023-04-27T14:24:18.760Z,14.28
2023-04-27T14:26:47.553Z,14.21
2023-04-27T14:29:15.571Z,14.19
2023-04-27T14:31:43.216Z,14.15
2023-04-27T14:34:10.950Z,13.64
2023-04-27T14:36:37.984Z,13.56
2023-04-27T14:39:06.729Z,13.70
2023-04-27T14:41:33.922Z,14.02
2023-04-27T14:44:01.135Z,14.08
2023-04-27T14:46:28.763Z,14.09
2023-04-27T14:48:56.202Z,14.09
2023-04-27T14:51:23.310Z,14.03
2023-04-27T14:53:50.484Z,14.30
2023-04-27T14:56:17.708Z,14.43
2023-04-27T14:58:44.798Z,14.04
2023-04-27T15:01:11.906Z,14.10
2023-04-27T15:03:39.236Z,13.95
2023-04-27T15:06:06.805Z,14.04
2023-04-27T15:08:34.498Z,14.03
2023-04-27T15:11:03.791Z,13.93
2023-04-27T15:13:31.155Z,13.63
2023-04-27T15:15:59.017Z,13.73
2023-04-27T15:18:26.296Z,13.49
2023-04-27T15:20:54.096Z,13.68
2023-04-27T15:23:21.744Z,13.88
2023-04-27T15:25:49.267Z,13.78
2023-04-27T15:28:16.740Z,13.63
2023-04-27T15:30:44.210Z,13.68
2023-04-27T15:33:11.631Z,13.74
2023-04-27T15:35:40.289Z,13.91
2023-04-27T15:38:09.469Z,13.95
2023-04-27T15:40:36.677Z,13.94
2023-04-27T15:43:04.837Z,13.83
2023-04-27T15:45:31.950Z,13.80
2023-04-27T15:47:59.644Z,13.77
2023-04-27T15:50:26.799Z,13.87
2023-04-27T15:52:54.028Z,13.78
2023-04-27T15:55:22.050Z,13.62
2023-04-27T15:57:49.442Z,13.79
2023-04-27T16:00:17.915Z,13.79
2023-04-27T16:02:45.142Z,13.64
2023-04-27T16:05:12.327Z,13.53
2023-04-27T16:07:39.850Z,13.51
2023-04-27T16:10:07.602Z,13.52
2023-04-27T16:12:35.165Z,13.50
2023-04-27T16:15:02.259Z,13.56
2023-04-27T16:17:33.398Z,13.65
2023-04-27T16:20:00.609Z,13.67
2023-04-27T16:22:28.047Z,13.54
2023-04-27T16:24:55.157Z,13.51
2023-04-27T16:27:22.297Z,13.43
2023-04-27T16:29:49.653Z,13.44
2023-04-27T16:32:17.571Z,13.24
2023-04-27T16:34:44.769Z,13.29
2023-04-27T16:37:11.926Z,13.29
2023-04-27T16:39:39.005Z,13.10
2023-04-27T16:42:06.222Z,13.01
2023-04-27T16:44:33.330Z,12.90
2023-04-27T16:47:00.381Z,12.88
2023-04-27T16:49:27.488Z,12.86
2023-04-27T16:51:56.242Z,12.74
2023-04-27T16:54:23.389Z,12.77
2023-04-27T16:56:50.558Z,12.71
2023-04-27T16:59:17.674Z,12.61
2023-04-27T17:01:44.840Z,12.60
2023-04-27T17:04:12.144Z,12.52
2023-04-27T17:06:40.448Z,12.45
2023-04-27T17:09:08.279Z,12.54
2023-04-27T17:11:35.415Z,12.49
2023-04-27T17:14:02.525Z,12.44
2023-04-27T17:16:29.628Z,12.53
2023-04-27T17:18:56.809Z,12.54
2023-04-27T17:21:25.093Z,12.37
2023-04-27T17:23:53.174Z,12.34
2023-04-27T17:26:21.555Z,12.42
2023-04-27T17:28:49.325Z,12.36
2023-04-27T17:31:17.688Z,12.33
2023-04-27T17:33:45.332Z,12.32
2023-04-27T17:36:12.979Z,12.31
2023-04-27T17:38:40.812Z,12.22
2023-04-27T17:41:07.929Z,12.22
2023-04-27T17:43:35.114Z,12.22
2023-04-27T17:46:06.227Z,12.19
2023-04-27T17:48:33.390Z,12.14
2023-04-27T17:51:00.442Z,12.12
2023-04-27T17:53:27.492Z,12.14
2023-04-27T17:55:54.640Z,12.03
2023-04-27T17:58:21.693Z,11.99
2023-04-27T18:00:48.764Z,11.91
2023-04-27T18:03:16.092Z,11.94
2023-04-27T18:05:43.369Z,11.91
2023-04-27T18:08:10.948Z,11.80
2023-04-27T18:10:38.059Z,11.78
2023-04-27T18:13:05.115Z,11.73
2023-04-27T18:15:32.205Z,11.66
2023-04-27T18:17:59.344Z,11.48
2023-04-27T18:20:27.982Z,11.47
2023-04-27T18:22:55.158Z,11.42
2023-04-27T18:25:22.228Z,11.38
2023-04-27T18:27:55.158Z,11.37
2023-04-27T18:30:22.975Z,11.38
2023-04-27T18:32:50.206Z,11.44
2023-04-27T18:35:17.430Z,11.37
2023-04-27T18:37:48.270Z,11.34
2023-04-27T18:40:16.712Z,11.29
2023-04-27T18:42:43.862Z,11.18
2023-04-27T18:45:11.282Z,11.16
2023-04-27T18:47:38.457Z,11.12
2023-04-27T18:50:06.467Z,11.10
2023-04-27T18:52:33.620Z,11.06
2023-04-27T18:55:00.850Z,11.01
2023-04-27T18:57:27.992Z,10.98
2023-04-27T18:59:55.229Z,10.91
2023-04-27T19:02:22.408Z,10.83
2023-04-27T19:05:01.730Z,10.82
2023-04-27T19:07:36.621Z,10.76
2023-04-27T19:10:04.029Z,10.73
2023-04-27T19:12:31.392Z,10.65
2023-04-27T19:14:58.479Z,10.61
2023-04-27T19:17:26.018Z,10.60
2023-04-27T19:19:53.276Z,10.56
2023-04-27T19:22:20.372Z,10.48
2023-04-27T19:24:47.923Z,10.39
2023-04-27T19:27:15.225Z,10.26
2023-04-27T19:29:52.981Z,10.24
2023-04-27T19:32:20.818Z,10.26
2023-04-27T19:34:48.473Z,10.23
2023-04-27T19:37:16.058Z,10.22
2023-04-27T19:39:43.194Z,10.13
2023-04-27T19:42:10.337Z,9.99
2023-04-27T19:44:37.373Z,9.86
2023-04-27T19:47:04.468Z,9.76
2023-04-27T19:49:32.720Z,9.76
2023-04-27T19:52:00.560Z,9.69
2023-04-27T19:54:27.699Z,9.72
2023-04-27T19:56:55.588Z,9.76
2023-04-27T19:59:22.687Z,9.73
2023-04-27T20:01:49.908Z,9.69
2023-04-27T20:04:18.261Z,9.68
2023-04-27T20:06:46.422Z,9.65
2023-04-27T20:09:13.528Z,9.62
2023-04-27T20:11:40.688Z,9.59
2023-04-27T20:14:07.739Z,9.54
2023-04-27T20:16:34.942Z,9.51
2023-04-27T20:19:02.097Z,9.50
2023-04-27T20:21:29.360Z,9.47
2023-04-27T20:23:56.551Z,9.41
2023-04-27T20:26:24.496Z,9.41
2023-04-27T20:28:52.086Z,9.30
2023-04-27T20:31:19.262Z,9.33
2023-04-27T20:33:46.374Z,9.33
2023-04-27T20:36:17.976Z,9.29
2023-04-27T20:38:45.775Z,9.17
2023-04-27T20:41:12.866Z,9.14
2023-04-27T20:43:40.408Z,9.16
2023-04-27T20:46:07.842Z,9.17
2023-04-27T20:48:35.050Z,9.18
2023-04-27T20:51:02.380Z,9.14
2023-04-27T20:53:29.678Z,9.09
2023-04-27T20:55:57.039Z,9.10
2023-04-27T20:58:24.871Z,9.10
2023-04-27T21:00:52.106Z,9.05
2023-04-27T21:03:19.516Z,9.02
2023-04-27T21:05:47.260Z,8.99
2023-04-27T21:08:14.738Z,9.00
2023-04-27T21:10:41.992Z,8.96
2023-04-27T21:13:09.199Z,8.93
2023-04-27T21:15:36.263Z,8.91
2023-04-27T21:20:33.661Z,8.86
2023-04-27T21:23:00.785Z,8.83
2023-04-27T21:25:27.864Z,8.72
2023-04-27T21:27:54.919Z,8.71
2023-04-27T21:30:21.973Z,8.75
2023-04-27T21:32:49.653Z,8.76
2023-04-27T21:35:16.780Z,8.74
2023-04-27T21:37:43.884Z,8.71
2023-04-27T21:40:11.178Z,8.57
2023-04-27T21:42:38.274Z,8.52
2023-04-27T21:45:05.855Z,8.50
2023-04-27T21:47:32.980Z,8.55
2023-04-27T21:50:00.151Z,8.54
2023-04-27T21:52:27.204Z,8.56
2023-04-27T21:54:54.251Z,8.56
2023-04-27T21:57:21.350Z,8.58
2023-04-27T21:59:48.412Z,8.57
2023-04-27T22:02:16.166Z,8.53
2023-04-27T22:04:43.588Z,8.55
2023-04-27T22:07:12.051Z,8.48
2023-04-27T22:09:39.182Z,8.45
2023-04-27T22:12:06.559Z,8.44
2023-04-27T22:14:33.687Z,8.44
2023-04-27T22:17:01.051Z,8.40
2023-04-27T22:19:28.704Z,8.41
2023-04-27T22:21:56.589Z,8.38
2023-04-27T22:24:23.719Z,8.37
2023-04-27T22:26:50.787Z,8.35
2023-04-27T22:29:18.167Z,8.30
2023-04-27T22:31:45.598Z,8.22
2023-04-27T22:34:13.106Z,8.21
2023-04-27T22:36:40.530Z,8.23
2023-04-27T22:39:08.284Z,8.15
2023-04-27T22:41:36.086Z,8.10
2023-04-27T22:44:03.181Z,8.14
2023-04-27T22:46:30.573Z,8.17
2023-04-27T22:48:58.646Z,8.17
2023-04-27T22:51:27.262Z,8.17
2023-04-27T22:53:54.714Z,8.14
2023-04-27T22:56:22.512Z,8.10
2023-04-27T22:58:49.791Z,8.10
2023-04-27T23:01:17.221Z,8.11
2023-04-27T23:03:44.730Z,8.10
2023-04-27T23:06:14.886Z,8.07
2023-04-27T23:08:43.108Z,7.99
2023-04-27T23:11:13.814Z,7.99
2023-04-27T23:13:41.020Z,7.92
2023-04-27T23:16:09.918Z,7.92
2023-04-27T23:18:37.269Z,7.90
2023-04-27T23:21:04.344Z,7.90
2023-04-27T23:23:31.424Z,7.91
2023-04-27T23:25:58.548Z,7.91
2023-04-27T23:28:25.837Z,7.93
2023-04-27T23:30:54.476Z,7.94
2023-04-27T23:33:21.976Z,7.92
2023-04-27T23:35:49.105Z,7.90
2023-04-27T23:38:16.209Z,7.89
2023-04-27T23:40:43.302Z,7.89
2023-04-27T23:43:10.549Z,7.87
2023-04-27T23:45:37.728Z,7.88
2023-04-27T23:48:05.024Z,7.76
2023-04-27T23:50:32.630Z,7.83
2023-04-27T23:52:59.773Z,7.88
2023-04-27T23:55:26.902Z,7.86
2023-04-27T23:57:54.103Z,7.87
